Time;durP1;ratioP1;P1;durP2;ratioP2;P2;SDS_P1;SDS_P2;PMS_P1;PMS_P2;Temp;Humidity;BMP_temperature;BMP_pressure;BME280_temperature;BME280_humidity;BME280_pressure;Samples;Min_cycle;Max_cycle;Signal;HPM_P1;HPM_P2
2021/12/11 00:01:05;;;;;;;13.48;3.15;;;;;;;6.24;71.42;100571.44;5056815;28;20052;-62
2021/12/11 00:03:38;;;;;;;15.98;3.17;;;;;;;6.23;71.11;100575.31;5056524;28;20057;-63
2021/12/11 00:06:12;;;;;;;15.30;3.25;;;;;;;6.17;71.34;100570.19;5056718;28;20052;-63
2021/12/11 00:08:42;;;;;;;17.58;3.50;;;;;;;5.81;72.56;100575.09;5055296;28;20060;-63
2021/12/11 00:11:15;;;;;;;12.80;3.40;;;;;;;5.95;72.26;100583.47;5067899;28;20048;-64
2021/12/11 00:13:43;;;;;;;12.23;3.05;;;;;;;5.86;72.87;100596.16;5075257;28;20075;-63
2021/12/11 00:16:14;;;;;;;11.40;3.25;;;;;;;6.21;71.60;100588.44;5056353;28;20048;-63
2021/12/11 00:18:42;;;;;;;23.00;3.70;;;;;;;5.93;72.49;100602.91;5055106;28;20401;-63
2021/12/11 00:21:14;;;;;;;15.27;3.30;;;;;;;6.00;72.70;100611.59;5071461;28;20048;-63
2021/12/11 00:23:51;;;;;;;14.43;3.60;;;;;;;5.80;72.99;100611.72;5056644;28;20052;-62
2021/12/11 00:26:33;;;;;;;12.30;3.60;;;;;;;5.93;72.76;100618.50;5056194;28;20052;-62
2021/12/11 00:29:01;;;;;;;13.63;3.42;;;;;;;5.88;73.25;100623.97;5057402;28;20057;-63
2021/12/11 00:31:30;;;;;;;24.23;4.22;;;;;;;5.78;73.56;100626.75;5069790;28;20061;-62
2021/12/11 00:33:58;;;;;;;18.33;3.60;;;;;;;5.82;73.26;100625.09;5054182;28;20055;-63
2021/12/11 00:36:32;;;;;;;13.23;2.88;;;;;;;6.03;72.59;100623.88;5054305;28;20056;-63
2021/12/11 00:39:11;;;;;;;16.42;3.20;;;;;;;6.18;72.38;100634.69;5070422;28;20048;-62
2021/12/11 00:41:39;;;;;;;19.73;3.15;;;;;;;6.11;72.00;100647.88;5061599;28;20053;-63
2021/12/11 00:44:07;;;;;;;17.33;3.30;;;;;;;5.96;72.46;100642.53;5037307;28;20524;-62
2021/12/11 00:46:35;;;;;;;14.93;3.38;;;;;;;6.12;71.68;100658.53;5070722;28;20048;-62
2021/12/11 00:49:21;;;;;;;14.57;3.10;;;;;;;6.09;72.06;100658.28;5073436;28;20040;-63
2021/12/11 00:51:55;;;;;;;17.85;3.30;;;;;;;6.21;71.67;100670.50;5067435;28;20076;-63
2021/12/11 00:54:23;;;;;;;14.07;2.95;;;;;;;5.70;72.88;100664.53;5055835;28;20049;-63
2021/12/11 00:56:50;;;;;;;18.83;3.13;;;;;;;5.79;73.95;100674.88;5055892;28;20037;-63
2021/12/11 00:59:20;;;;;;;13.23;2.78;;;;;;;5.71;74.12;100671.63;5055805;28;20064;-63
2021/12/11 01:01:52;;;;;;;10.75;3.00;;;;;;;5.90;73.44;100680.00;5055979;28;20045;-65
2021/12/11 01:04:21;;;;;;;16.52;4.05;;;;;;;6.16;72.38;100677.91;5059992;28;20412;-62
2021/12/11 01:06:55;;;;;;;18.05;3.55;;;;;;;5.74;73.06;100687.47;5055675;28;20373;-63
2021/12/11 01:09:54;;;;;;;17.27;3.58;;;;;;;5.45;74.52;100699.38;5059280;28;20059;-63
2021/12/11 01:12:37;;;;;;;13.30;2.78;;;;;;;5.35;74.66;100702.16;5075210;28;20052;-64
2021/12/11 01:15:44;;;;;;;13.38;3.45;;;;;;;5.44;74.89;100700.47;5074963;28;20041;-64
2021/12/11 01:20:54;;;;;;;15.88;3.25;;;;;;;5.64;74.40;100712.13;5064725;28;20056;-63
2021/12/11 01:23:45;;;;;;;11.73;2.85;;;;;;;5.54;74.29;100714.09;5075443;28;20488;-63
2021/12/11 01:26:17;;;;;;;17.40;2.95;;;;;;;5.62;74.02;100725.25;5074067;28;20400;-63
2021/12/11 01:28:44;;;;;;;13.88;2.85;;;;;;;5.61;73.93;100728.25;5074538;28;20053;-62
2021/12/11 01:31:17;;;;;;;12.68;3.10;;;;;;;5.70;73.93;100732.03;5074739;28;20053;-62
2021/12/11 01:33:45;;;;;;;15.15;2.75;;;;;;;5.53;74.19;100726.09;5074956;28;20051;-63
2021/12/11 01:36:12;;;;;;;14.23;3.17;;;;;;;5.63;73.97;100732.31;5056900;28;20044;-63
2021/12/11 01:38:41;;;;;;;12.35;2.92;;;;;;;5.82;73.49;100740.72;5071883;28;20064;-62
2021/12/11 01:41:16;;;;;;;11.40;2.70;;;;;;;5.72;73.58;100752.50;5028191;28;20060;-61
2021/12/11 01:43:48;;;;;;;15.80;3.08;;;;;;;5.79;73.81;100744.00;5066903;28;20053;-62
2021/12/11 01:46:19;;;;;;;14.02;3.53;;;;;;;5.98;72.28;100752.41;5055374;28;20056;-62
2021/12/11 01:48:50;;;;;;;15.95;3.20;;;;;;;6.14;72.48;100765.72;5066102;28;20052;-62
2021/12/11 01:51:22;;;;;;;14.80;3.22;;;;;;;6.17;71.74;100762.41;5053754;28;20067;-62
2021/12/11 01:53:58;;;;;;;10.90;2.70;;;;;;;6.37;70.74;100767.75;5054222;28;20472;-62
2021/12/11 01:56:29;;;;;;;13.07;3.25;;;;;;;6.15;71.58;100769.25;5054641;28;20049;-62
2021/12/11 01:59:10;;;;;;;17.17;2.83;;;;;;;6.14;71.97;100760.22;5055912;28;20057;-61
2021/12/11 02:01:53;;;;;;;17.35;3.00;;;;;;;5.94;72.29;100765.00;5053460;28;20060;-61
2021/12/11 02:04:25;;;;;;;14.75;2.55;;;;;;;6.13;71.73;100774.19;5054336;28;20637;-62
2021/12/11 02:06:54;;;;;;;21.60;3.95;;;;;;;5.85;72.83;100777.63;5054636;28;20053;-62
2021/12/11 02:09:29;;;;;;;13.07;2.40;;;;;;;5.72;73.56;100784.47;5057513;28;20056;-62
2021/12/11 02:12:18;;;;;;;12.18;3.05;;;;;;;5.85;72.92;100789.38;5074850;28;20059;-62
2021/12/11 02:14:49;;;;;;;16.60;2.78;;;;;;;5.80;73.04;100786.66;5074349;28;20484;-61
2021/12/11 02:17:26;;;;;;;15.38;3.53;;;;;;;6.07;72.49;100788.97;5074462;28;20087;-62
2021/12/11 02:19:56;;;;;;;15.88;2.72;;;;;;;6.09;71.89;100789.53;5065441;28;20045;-63
2021/12/11 02:22:29;;;;;;;15.25;3.22;;;;;;;6.09;72.18;100804.03;5058206;28;20056;-62
2021/12/11 02:25:00;;;;;;;14.20;3.28;;;;;;;6.18;71.88;100798.78;5053489;28;20496;-62
2021/12/11 02:27:31;;;;;;;15.02;2.50;;;;;;;6.32;71.16;100816.19;5054804;28;20053;-63
2021/12/11 02:30:24;;;;;;;10.07;2.20;;;;;;;6.32;71.00;100813.47;5063602;28;20051;-62
2021/12/11 02:33:07;;;;;;;12.25;2.90;;;;;;;6.27;71.30;100824.44;5074415;28;20064;-62
2021/12/11 02:36:10;;;;;;;15.27;2.75;;;;;;;6.31;71.13;100815.38;5074591;28;20052;-62
2021/12/11 02:38:54;;;;;;;12.60;2.80;;;;;;;6.21;70.51;100825.56;5066255;28;20372;-63
2021/12/11 02:41:29;;;;;;;12.07;2.70;;;;;;;6.23;70.94;100817.88;5094747;28;20044;-62
2021/12/11 02:44:02;;;;;;;21.00;3.55;;;;;;;6.40;70.90;100821.06;5093631;28;20048;-62
2021/12/11 02:46:36;;;;;;;12.45;2.85;;;;;;;6.06;71.33;100822.91;5054515;28;20061;-62
2021/12/11 02:49:08;;;;;;;11.82;2.58;;;;;;;5.98;71.77;100831.69;5054215;28;20053;-62
2021/12/11 02:51:45;;;;;;;12.73;2.92;;;;;;;5.79;72.67;100822.47;5054772;28;20049;-64
2021/12/11 02:54:21;;;;;;;28.17;3.15;;;;;;;5.75;72.71;100822.19;5053343;28;20057;-61
2021/12/11 02:56:58;;;;;;;9.70;2.67;;;;;;;5.57;73.82;100828.25;5060787;28;20493;-61
2021/12/11 02:59:29;;;;;;;13.95;2.78;;;;;;;5.50;74.11;100828.56;5072491;28;20052;-62
2021/12/11 03:02:05;;;;;;;13.18;2.70;;;;;;;5.76;73.24;100829.28;5072828;28;20057;-62
2021/12/11 03:04:40;;;;;;;12.88;2.75;;;;;;;5.75;73.58;100839.38;5072177;28;20409;-62
2021/12/11 03:07:11;;;;;;;11.38;3.10;;;;;;;5.66;73.52;100843.00;5056507;28;20049;-62
2021/12/11 03:09:44;;;;;;;14.88;2.97;;;;;;;5.80;73.24;100849.50;5056675;28;20060;-62
2021/12/11 03:12:14;;;;;;;15.07;2.90;;;;;;;6.00;72.88;100854.91;5056703;28;20068;-63
2021/12/11 03:14:43;;;;;;;17.50;3.20;;;;;;;6.03;72.69;100859.03;5068091;28;20067;-62
2021/12/11 03:17:10;;;;;;;12.40;2.58;;;;;;;5.51;73.74;100860.22;5076863;28;20044;-62
2021/12/11 03:19:41;;;;;;;17.48;2.70;;;;;;;5.40;75.07;100871.47;5077528;28;20063;-62
2021/12/11 03:22:14;;;;;;;15.82;2.67;;;;;;;5.38;75.45;100873.66;5068279;28;20040;-62
2021/12/11 03:24:41;;;;;;;15.23;3.00;;;;;;;5.78;74.36;100878.19;5067602;28;20063;-62
2021/12/11 03:27:08;;;;;;;13.02;2.47;;;;;;;5.74;74.13;100886.97;5077105;28;20044;-63
2021/12/11 03:29:36;;;;;;;19.17;3.10;;;;;;;5.70;74.24;100896.81;5076432;28;20404;-62
2021/12/11 03:32:06;;;;;;;18.08;2.80;;;;;;;5.75;74.03;100890.53;5077250;28;20056;-62
2021/12/11 03:34:33;;;;;;;;;;;;;;;6.08;72.72;100900.84;5069059;28;20060;-62
2021/12/11 03:37:03;;;;;;;17.15;2.50;;;;;;;5.78;74.07;100900.88;5057030;28;19928;-63
2021/12/11 03:39:32;;;;;;;;;;;;;;;5.89;73.69;100908.00;5074853;28;20056;-63
2021/12/11 03:42:04;;;;;;;14.57;2.20;;;;;;;5.80;74.11;100908.81;5097702;28;19927;-64
2021/12/11 03:44:33;;;;;;;14.35;2.42;;;;;;;5.48;75.32;100914.59;5088379;28;20052;-62
2021/12/11 03:47:16;;;;;;;14.67;2.23;;;;;;;5.75;75.17;100913.19;5064056;28;20049;-63
2021/12/11 03:49:43;;;;;;;10.60;2.50;;;;;;;5.42;75.95;100921.97;5057275;28;20818;-62
2021/12/11 03:52:13;;;;;;;13.95;2.45;;;;;;;5.64;75.50;100918.97;5057279;28;20064;-63
2021/12/11 03:54:42;;;;;;;13.20;2.83;;;;;;;5.67;75.49;100932.06;5066527;28;20056;-65
2021/12/11 03:57:12;;;;;;;16.98;3.67;;;;;;;5.61;75.48;100927.72;5076783;28;20052;-62
2021/12/11 03:59:41;;;;;;;10.27;2.22;;;;;;;5.64;75.41;100935.34;5075539;28;20395;-62
2021/12/11 04:02:11;;;;;;;13.55;2.10;;;;;;;6.07;73.83;100937.47;5075781;28;20041;-63
2021/12/11 04:04:45;;;;;;;15.38;2.30;;;;;;;6.10;73.80;100931.44;5067927;28;20037;-62
2021/12/11 04:07:18;;;;;;;17.65;3.03;;;;;;;6.02;73.40;100940.22;5056505;28;20128;-62
2021/12/11 04:09:47;;;;;;;10.20;2.30;;;;;;;5.77;74.29;100936.69;5057277;28;20091;-62
2021/12/11 04:12:15;;;;;;;10.43;2.47;;;;;;;5.61;74.91;100939.44;5056809;28;20523;-63
2021/12/11 04:14:45;;;;;;;16.67;2.60;;;;;;;5.74;74.60;100936.16;5057554;28;20045;-63
2021/12/11 04:17:14;;;;;;;15.73;2.55;;;;;;;5.77;74.92;100944.91;5054392;28;20049;-63
2021/12/11 04:19:41;;;;;;;17.38;2.95;;;;;;;6.04;73.58;100951.69;5055462;28;20439;-65
2021/12/11 04:22:09;;;;;;;16.63;2.40;;;;;;;6.12;73.18;100953.84;5055334;28;20044;-61
2021/12/11 04:24:38;;;;;;;16.63;2.50;;;;;;;6.03;73.76;100946.50;5068281;28;20048;-61
2021/12/11 04:27:09;;;;;;;20.17;2.75;;;;;;;5.96;73.76;100944.06;5056195;28;20044;-61
2021/12/11 04:29:36;;;;;;;9.07;2.00;;;;;;;6.23;73.19;100950.00;5055171;28;20059;-61
2021/12/11 04:32:04;;;;;;;16.80;2.80;;;;;;;6.20;72.76;100956.03;5056166;28;20065;-62
2021/12/11 04:34:32;;;;;;;14.10;2.50;;;;;;;5.97;73.06;100959.38;5061283;28;20528;-61
2021/12/11 04:37:13;;;;;;;14.32;2.78;;;;;;;6.00;73.20;100972.47;5058854;28;20061;-62
2021/12/11 04:39:44;;;;;;;14.75;2.67;;;;;;;5.89;73.61;100970.88;5069745;28;20051;-63
2021/12/11 04:42:33;;;;;;;16.48;2.85;;;;;;;5.82;73.79;100972.22;5096776;28;20052;-62
2021/12/11 04:45:02;;;;;;;10.10;2.95;;;;;;;5.77;73.94;100973.03;5082126;28;20052;-62
2021/12/11 04:47:40;;;;;;;17.48;2.78;;;;;;;5.83;73.84;100974.69;5075567;28;20051;-61
2021/12/11 04:50:18;;;;;;;13.93;2.80;;;;;;;5.68;73.93;100980.97;5075899;28;20052;-62
2021/12/11 04:52:55;;;;;;;17.10;2.85;;;;;;;5.86;73.92;100992.47;5074656;28;20048;-62
2021/12/11 05:03:27;;;;;;;21.90;3.22;;;;;;;5.78;73.56;100987.53;5054366;28;20053;-63
2021/12/11 05:06:45;;;;;;;13.95;2.97;;;;;;;5.70;73.69;100977.97;5071676;28;20052;-62
2021/12/11 05:11:32;;;;;;;11.10;2.70;;;;;;;5.73;74.04;100989.19;5074222;28;20063;-62
2021/12/11 05:14:00;;;;;;;15.45;2.72;;;;;;;5.81;73.96;100992.44;5072057;28;20056;-62
2021/12/11 05:16:27;;;;;;;11.35;2.80;;;;;;;5.65;74.35;100999.81;5055178;28;20455;-62
2021/12/11 05:18:55;;;;;;;20.20;2.95;;;;;;;5.62;74.46;100995.75;5053929;28;20053;-62
2021/12/11 05:21:22;;;;;;;15.60;2.88;;;;;;;5.82;74.20;100992.19;5053706;28;20067;-62
2021/12/11 05:23:51;;;;;;;17.33;3.08;;;;;;;5.55;74.65;100999.84;5059223;28;20408;-62
2021/12/11 05:26:21;;;;;;;15.95;3.67;;;;;;;5.30;75.36;100997.91;5055810;28;20052;-62
2021/12/11 05:28:49;;;;;;;19.15;2.67;;;;;;;5.54;75.55;101009.13;5053445;28;20049;-63
2021/12/11 05:31:17;;;;;;;14.80;2.33;;;;;;;5.34;75.17;101004.47;5071829;28;20049;-63
2021/12/11 05:33:45;;;;;;;13.77;3.10;;;;;;;5.24;76.14;101017.28;5075128;28;20056;-63
2021/12/11 05:36:15;;;;;;;17.35;3.53;;;;;;;5.36;76.26;101029.59;5052916;28;20435;-63
2021/12/11 05:38:43;;;;;;;;;;;;;;;5.42;75.15;101031.25;5067486;28;20059;-62
2021/12/11 05:41:12;;;;;;;14.35;2.60;;;;;;;5.46;75.89;101046.00;5095404;28;19939;-62
2021/12/11 05:43:40;;;;;;;23.38;3.08;;;;;;;5.15;76.22;101046.22;5094209;28;20055;-62
2021/12/11 05:46:10;;;;;;;11.95;2.40;;;;;;;5.19;76.46;101047.31;5060131;28;20060;-60
2021/12/11 05:48:37;;;;;;;14.05;2.65;;;;;;;5.05;76.95;101047.03;5053394;28;20049;-62
2021/12/11 05:51:08;;;;;;;16.17;3.13;;;;;;;5.11;76.90;101051.41;5055219;28;20056;-61
2021/12/11 05:53:35;;;;;;;13.32;2.85;;;;;;;5.11;77.18;101064.25;5055492;28;20052;-61
2021/12/11 05:56:10;;;;;;;18.90;3.28;;;;;;;5.31;76.17;101075.22;5070598;28;20523;-62
2021/12/11 06:01:24;;;;;;;12.82;2.92;;;;;;;5.41;75.45;101078.78;5054867;28;20084;-62
2021/12/11 06:03:58;;;;;;;14.07;2.65;;;;;;;5.35;75.53;101096.22;5055080;28;20055;-62
2021/12/11 06:06:26;;;;;;;20.50;3.50;;;;;;;5.28;75.53;101097.59;5055325;28;20053;-62
2021/12/11 06:08:53;;;;;;;13.52;3.45;;;;;;;5.04;76.15;101107.34;5055143;28;20049;-62
2021/12/11 06:11:20;;;;;;;11.88;3.17;;;;;;;5.12;76.24;101115.84;5055045;28;20060;-62
2021/12/11 06:13:48;;;;;;;15.48;3.60;;;;;;;5.04;76.70;101121.00;5055468;28;20052;-61
2021/12/11 06:16:16;;;;;;;15.25;3.28;;;;;;;5.04;76.38;101115.56;5056001;28;20504;-63
2021/12/11 06:18:45;;;;;;;18.33;3.05;;;;;;;5.09;76.94;101110.09;5054236;28;20120;-61
2021/12/11 06:21:14;;;;;;;16.85;3.63;;;;;;;4.98;76.71;101122.06;5054802;28;20052;-61
2021/12/11 06:23:42;;;;;;;13.48;3.38;;;;;;;4.96;77.04;101113.31;5056225;28;20048;-62
2021/12/11 06:26:10;;;;;;;19.73;4.10;;;;;;;4.83;77.77;101124.72;5070669;28;20051;-63
2021/12/11 06:28:38;;;;;;;18.85;3.40;;;;;;;4.96;77.65;101116.03;5073132;28;20052;-62
2021/12/11 06:31:06;;;;;;;22.77;3.85;;;;;;;4.93;77.24;101124.78;5060497;28;20053;-62
2021/12/11 06:33:34;;;;;;;14.45;3.67;;;;;;;5.07;77.20;101134.13;5054915;28;20083;-62
2021/12/11 06:36:08;;;;;;;19.80;3.75;;;;;;;5.08;76.41;101114.72;5055908;28;20045;-62
2021/12/11 06:38:37;;;;;;;15.45;3.58;;;;;;;4.96;77.09;101129.69;5057251;28;20049;-61
2021/12/11 06:41:07;;;;;;;18.40;4.45;;;;;;;4.96;77.53;101132.41;5079122;28;20148;-62
2021/12/11 06:43:35;;;;;;;;;;;;;;;5.03;76.67;101133.00;5073228;28;20061;-61
2021/12/11 06:46:03;;;;;;;17.02;3.35;;;;;;;5.06;76.87;101141.47;5061527;28;23056;-62
2021/12/11 06:48:30;;;;;;;13.02;4.28;;;;;;;5.12;76.76;101147.78;5057639;28;20060;-62
2021/12/11 06:50:58;;;;;;;16.50;4.20;;;;;;;4.98;77.32;101158.38;5058225;28;20056;-62
2021/12/11 06:53:39;;;;;;;12.98;3.17;;;;;;;4.95;77.41;101167.06;5065161;28;20068;-62
2021/12/11 06:56:09;;;;;;;17.75;3.30;;;;;;;4.82;77.59;101172.19;5064855;28;20060;-62
2021/12/11 06:58:37;;;;;;;16.90;3.05;;;;;;;4.81;78.27;101170.56;5057832;28;20056;-62
2021/12/11 07:01:06;;;;;;;22.23;3.25;;;;;;;5.07;77.75;101172.34;5062954;28;20413;-64
2021/12/11 07:03:34;;;;;;;22.47;3.80;;;;;;;4.89;77.09;101180.97;5057894;28;20049;-63
2021/12/11 07:06:02;;;;;;;18.40;3.20;;;;;;;4.65;78.25;101183.28;5074535;28;20055;-63
2021/12/11 07:08:30;;;;;;;17.88;3.85;;;;;;;4.57;78.97;101192.78;5075741;28;20056;-62
2021/12/11 07:10:59;;;;;;;17.80;3.47;;;;;;;4.67;79.01;101193.94;5058595;28;20045;-62
2021/12/11 07:13:28;;;;;;;17.40;3.23;;;;;;;4.85;78.49;101199.78;5068537;28;20053;-63
2021/12/11 07:15:56;;;;;;;11.85;3.72;;;;;;;4.93;77.99;101203.94;5057382;28;20291;-62
2021/12/11 07:18:25;;;;;;;19.13;3.47;;;;;;;4.70;78.65;101217.97;5057747;28;20076;-62
2021/12/11 07:20:54;;;;;;;16.83;3.83;;;;;;;4.80;78.69;101221.59;5056627;28;20037;-62
2021/12/11 07:23:21;;;;;;;15.65;3.42;;;;;;;4.72;78.85;101222.09;5082835;28;20043;-62
2021/12/11 07:25:58;;;;;;;21.85;8.30;;;;;;;4.77;78.94;101224.84;5060296;28;20071;-63
2021/12/11 07:28:26;;;;;;;21.48;4.40;;;;;;;4.77;78.61;101222.13;5077281;28;20064;-63
2021/12/11 07:30:55;;;;;;;18.00;3.70;;;;;;;4.83;78.67;101228.44;5075515;28;20036;-62
2021/12/11 07:33:23;;;;;;;15.98;3.60;;;;;;;4.82;77.89;101224.03;5077489;28;20048;-63
2021/12/11 07:35:51;;;;;;;18.25;3.70;;;;;;;4.99;77.98;101235.59;5077186;28;20439;-63
2021/12/11 07:38:19;;;;;;;16.95;3.70;;;;;;;5.29;76.81;101224.84;5076880;28;20052;-63
2021/12/11 07:40:52;;;;;;;17.90;4.07;;;;;;;5.32;76.77;101230.59;5080888;28;20054;-63
2021/12/11 07:43:22;;;;;;;16.83;3.22;;;;;;;5.32;76.49;101244.25;5055810;28;20555;-63
2021/12/11 07:45:50;;;;;;;20.45;3.53;;;;;;;5.18;76.52;101248.56;5056342;28;20057;-63
2021/12/11 07:48:18;;;;;;;17.75;3.78;;;;;;;5.35;77.50;101259.31;5066973;28;20358;-63
2021/12/11 07:50:46;;;;;;;26.10;4.40;;;;;;;5.46;77.55;101269.19;5061536;28;20064;-62
2021/12/11 07:53:14;;;;;;;18.38;3.88;;;;;;;5.77;77.32;101267.41;5077187;28;20504;-62
2021/12/11 07:55:41;;;;;;;19.02;3.65;;;;;;;5.75;76.42;101270.41;5059128;28;20049;-62
2021/12/11 07:58:09;;;;;;;14.68;3.63;;;;;;;5.68;75.50;101265.19;5062392;28;20048;-62
2021/12/11 08:00:41;;;;;;;23.23;4.57;;;;;;;5.69;75.39;101264.09;5056797;28;20052;-64
2021/12/11 08:03:10;;;;;;;25.08;10.18;;;;;;;6.07;77.71;101264.78;5055284;28;20052;-62
2021/12/11 08:05:40;;;;;;;15.13;5.70;;;;;;;6.56;75.10;101279.63;5055362;28;20045;-64
2021/12/11 08:08:10;;;;;;;18.58;4.35;;;;;;;6.16;73.72;101285.88;5055380;28;20057;-61
2021/12/11 08:10:41;;;;;;;14.00;3.33;;;;;;;5.92;75.14;101298.38;5069657;28;20045;-61
2021/12/11 08:13:09;;;;;;;16.95;3.47;;;;;;;6.03;75.23;101308.28;5075651;28;20048;-64
2021/12/11 08:15:39;;;;;;;16.70;3.40;;;;;;;5.83;76.30;101308.19;5073842;28;20048;-61
2021/12/11 08:18:10;;;;;;;24.20;4.05;;;;;;;6.37;82.01;101295.75;5076570;28;20045;-62
2021/12/11 08:20:41;;;;;;;21.45;4.35;;;;;;;7.82;76.91;101308.44;5068067;28;20047;-62
2021/12/11 08:23:09;;;;;;;;;;;;;;;7.78;68.80;101314.72;5062172;28;20052;-63
2021/12/11 08:25:38;;;;;;;15.27;2.78;;;;;;;8.07;66.95;101310.22;5059394;28;19920;-62
2021/12/11 08:28:07;;;;;;;12.02;3.00;;;;;;;7.19;67.06;101306.41;5055602;28;20053;-65
2021/12/11 08:30:37;;;;;;;16.85;3.50;;;;;;;6.31;70.42;101310.50;5075070;28;20071;-66
2021/12/11 08:33:06;;;;;;;20.10;3.92;;;;;;;6.39;70.96;101314.63;5074526;28;20060;-65
2021/12/11 08:35:34;;;;;;;15.90;4.60;;;;;;;5.99;72.41;101326.28;5075760;28;20045;-64
2021/12/11 08:38:04;;;;;;;16.45;3.55;;;;;;;5.97;73.00;101324.91;5071672;28;20049;-65
2021/12/11 08:40:33;;;;;;;;;;;;;;;5.90;72.97;101327.06;5068777;28;20045;-64
2021/12/11 08:43:02;;;;;;;15.80;3.70;;;;;;;5.78;73.50;101321.81;5056035;28;20375;-67
2021/12/11 08:46:33;;;;;;;21.38;4.32;;;;;;;5.94;73.19;101326.28;5055519;28;20064;-65
2021/12/11 08:48:29;;;;;;;23.63;5.93;;;;;;;6.05;73.50;101316.19;5049089;28;20060;-64
2021/12/11 08:51:03;;;;;;;15.43;4.25;;;;;;;6.05;73.47;101330.69;5053835;28;20049;-65
2021/12/11 08:53:31;;;;;;;23.45;5.90;;;;;;;6.11;73.15;101335.09;5055929;28;20049;-64
2021/12/11 08:56:02;;;;;;;19.38;3.90;;;;;;;6.05;72.86;101341.63;5056339;28;20055;-65
2021/12/11 08:58:29;;;;;;;18.17;4.22;;;;;;;6.30;72.63;101349.06;5056093;28;20048;-64
2021/12/11 09:01:10;;;;;;;16.85;4.60;;;;;;;6.63;72.01;101338.47;5055887;28;20052;-64
2021/12/11 09:03:52;;;;;;;14.30;4.15;;;;;;;6.71;71.09;101343.41;5055038;28;20543;-64
2021/12/11 09:06:31;;;;;;;22.75;4.32;;;;;;;6.69;70.92;101342.84;5056257;28;20064;-63
2021/12/11 09:09:10;;;;;;;15.90;4.03;;;;;;;6.47;71.46;101347.75;5054396;28;20045;-62
2021/12/11 09:11:47;;;;;;;11.32;3.83;;;;;;;6.82;70.84;101357.91;5056410;28;20041;-61
2021/12/11 09:14:18;;;;;;;18.33;4.63;;;;;;;6.69;71.23;101353.00;5074204;28;20068;-63
2021/12/11 09:17:07;;;;;;;20.35;4.22;;;;;;;6.69;71.01;101361.22;5066460;28;20556;-61
2021/12/11 09:19:37;;;;;;;25.67;4.30;;;;;;;6.64;71.38;101366.69;5062152;28;20057;-61
2021/12/11 09:22:14;;;;;;;15.05;3.88;;;;;;;6.91;70.77;101375.44;5056955;28;20068;-64
2021/12/11 09:25:04;;;;;;;15.57;3.67;;;;;;;6.94;70.69;101385.06;5054997;28;20095;-64
2021/12/11 09:27:44;;;;;;;15.80;4.40;;;;;;;7.27;69.61;101396.25;5053602;28;20057;-65
2021/12/11 09:30:17;;;;;;;25.52;4.72;;;;;;;7.22;69.74;101398.22;5055224;28;20045;-67
2021/12/11 09:32:51;;;;;;;14.50;3.63;;;;;;;6.89;69.88;101398.75;5054645;28;20041;-65
2021/12/11 09:35:33;;;;;;;19.42;4.35;;;;;;;6.82;70.29;101408.03;5054869;28;20118;-65
2021/12/11 09:38:08;;;;;;;17.85;5.13;;;;;;;6.84;70.05;101415.97;5052980;28;20064;-64
2021/12/11 09:40:41;;;;;;;16.23;3.92;;;;;;;7.05;70.40;101416.81;5090593;28;20044;-66
2021/12/11 09:43:26;;;;;;;11.18;3.50;;;;;;;7.17;69.93;101411.88;5084353;28;20119;-64
2021/12/11 09:45:54;;;;;;;15.98;3.63;;;;;;;6.92;70.90;101431.06;5070290;28;20052;-65
2021/12/11 09:48:22;;;;;;;13.88;3.88;;;;;;;7.02;70.88;101409.97;5086725;28;20056;-65
2021/12/11 09:50:58;;;;;;;21.15;3.92;;;;;;;6.99;70.20;101410.50;5073497;28;20036;-65
2021/12/11 09:53:33;;;;;;;20.10;4.15;;;;;;;7.03;69.83;101419.81;5073032;28;20059;-64
2021/12/11 09:56:04;;;;;;;24.55;4.18;;;;;;;7.25;69.88;101412.19;5070402;28;20107;-64
2021/12/11 09:58:34;;;;;;;18.63;3.85;;;;;;;7.24;69.28;101429.69;5062534;28;20507;-64
2021/12/11 10:01:16;;;;;;;30.08;6.22;;;;;;;7.18;69.72;101436.28;5054360;28;20045;-64
2021/12/11 10:03:51;;;;;;;22.17;3.97;;;;;;;7.22;69.73;101439.31;5062008;28;20050;-67
2021/12/11 10:06:38;;;;;;;13.57;3.70;;;;;;;7.24;69.17;101443.41;5061371;28;20049;-65
2021/12/11 10:09:17;;;;;;;17.30;3.78;;;;;;;7.11;69.17;101457.66;5058217;28;20053;-64
2021/12/11 10:12:40;;;;;;;16.17;3.90;;;;;;;7.24;69.20;101445.31;5053159;28;20102;-65
2021/12/11 10:15:20;;;;;;;14.25;3.90;;;;;;;7.08;69.41;101460.91;5035367;28;20049;-64
2021/12/11 10:17:54;;;;;;;15.25;4.03;;;;;;;7.33;69.91;101455.47;5071894;28;20065;-64
2021/12/11 10:20:29;;;;;;;15.63;3.83;;;;;;;7.26;69.58;101454.06;5070737;28;20049;-64
2021/12/11 10:22:59;;;;;;;15.38;4.07;;;;;;;7.35;69.59;101449.69;5082849;28;20048;-64
2021/12/11 10:25:31;;;;;;;14.43;4.03;;;;;;;7.33;69.12;101444.50;5081325;28;20087;-64
2021/12/11 10:28:00;;;;;;;21.42;3.90;;;;;;;7.28;69.28;101441.75;5061799;28;20067;-64
2021/12/11 10:30:31;;;;;;;23.42;5.05;;;;;;;7.59;69.48;101450.78;5069954;28;20052;-64
2021/12/11 10:32:58;;;;;;;25.65;4.88;;;;;;;7.65;68.29;101439.53;5077465;28;20048;-65
2021/12/11 10:35:32;;;;;;;18.20;4.40;;;;;;;7.97;67.83;101439.19;5078277;28;20055;-64
2021/12/11 10:38:02;;;;;;;20.73;4.13;;;;;;;8.01;67.58;101451.25;5075989;28;20538;-64
2021/12/11 10:40:35;;;;;;;24.65;4.90;;;;;;;8.14;67.53;101445.19;5076044;28;20057;-64
2021/12/11 10:43:14;;;;;;;18.60;3.85;;;;;;;8.31;66.05;101451.19;5064095;28;20056;-64
2021/12/11 10:45:42;;;;;;;20.15;3.35;;;;;;;7.93;66.44;101457.31;5072153;28;20060;-65
2021/12/11 10:48:13;;;;;;;13.05;3.60;;;;;;;7.98;66.64;101455.38;5075742;28;20049;-64
2021/12/11 10:50:51;;;;;;;21.90;4.30;;;;;;;7.95;67.07;101450.44;5076268;28;20060;-65
2021/12/11 10:53:21;;;;;;;17.08;4.07;;;;;;;8.03;67.07;101449.06;5076370;28;20064;-62
2021/12/11 10:55:52;;;;;;;15.20;4.30;;;;;;;7.84;67.41;101458.97;5068485;28;20495;-62
2021/12/11 10:58:21;;;;;;;;;;;;;;;7.73;68.19;101463.66;5069046;28;20059;-62
2021/12/11 11:00:57;;;;;;;13.80;3.63;;;;;;;7.74;67.87;101469.97;5071771;28;19931;-61
2021/12/11 11:03:28;;;;;;;23.42;4.70;;;;;;;7.86;67.87;101468.56;5077177;28;20527;-62
2021/12/11 11:05:55;;;;;;;16.83;3.95;;;;;;;7.77;68.67;101466.66;5069158;28;20049;-64
2021/12/11 11:08:23;;;;;;;22.27;4.13;;;;;;;7.85;68.33;101463.34;5066126;28;20052;-64
2021/12/11 11:10:55;;;;;;;16.77;3.58;;;;;;;8.09;67.18;101460.84;5071835;28;20052;-65
2021/12/11 11:13:23;;;;;;;25.05;4.85;;;;;;;8.07;67.38;101463.03;5066567;28;20044;-65
2021/12/11 11:15:52;;;;;;;18.63;4.78;;;;;;;8.25;66.93;101466.03;5078487;28;20044;-64
2021/12/11 11:18:21;;;;;;;22.87;4.70;;;;;;;8.19;66.53;101466.28;5076051;28;20044;-65
2021/12/11 11:21:08;;;;;;;19.30;3.78;;;;;;;8.40;66.92;101467.91;5083869;28;20045;-64
2021/12/11 11:23:36;;;;;;;22.73;3.90;;;;;;;8.28;67.39;101461.91;5076162;28;20487;-65
2021/12/11 11:26:08;;;;;;;19.80;3.95;;;;;;;8.16;67.14;101464.13;5070441;28;20048;-67
2021/12/11 11:28:36;;;;;;;15.02;3.03;;;;;;;8.06;67.32;101464.94;5073518;28;20060;-65
2021/12/11 11:31:09;;;;;;;18.80;3.95;;;;;;;8.21;67.07;101462.16;5076898;28;20040;-65
2021/12/11 11:33:40;;;;;;;17.48;3.88;;;;;;;7.93;67.56;101451.84;5076723;28;20415;-64
2021/12/11 11:36:13;;;;;;;18.02;4.35;;;;;;;8.24;67.16;101452.59;5074984;28;20047;-64
2021/12/11 11:38:43;;;;;;;14.70;4.68;;;;;;;8.48;66.53;101467.31;5076082;28;20052;-64
2021/12/11 11:41:17;;;;;;;17.10;3.90;;;;;;;8.29;66.63;101467.13;5058546;28;20072;-65
2021/12/11 11:43:45;;;;;;;17.35;3.80;;;;;;;8.10;67.24;101460.56;5074260;28;20055;-65
2021/12/11 11:46:13;;;;;;;19.35;4.55;;;;;;;8.16;67.68;101462.16;5062285;28;20053;-64
2021/12/11 11:48:44;;;;;;;16.75;3.95;;;;;;;8.06;67.70;101467.69;5058670;28;20056;-65
2021/12/11 11:51:30;;;;;;;19.80;4.55;;;;;;;8.28;66.98;101478.38;5061793;28;20049;-64
2021/12/11 11:53:58;;;;;;;14.00;3.75;;;;;;;8.35;67.12;101471.47;5064640;28;20053;-64
2021/12/11 11:56:29;;;;;;;16.83;4.13;;;;;;;8.53;66.81;101479.09;5071454;28;20053;-64
2021/12/11 11:58:56;;;;;;;20.92;3.75;;;;;;;8.35;67.15;101479.69;5060881;28;20044;-65
2021/12/11 12:01:31;;;;;;;17.70;4.85;;;;;;;8.20;67.80;101476.16;5060526;28;20538;-65
2021/12/11 12:03:58;;;;;;;19.13;5.20;;;;;;;8.50;67.96;101474.16;5059586;28;20048;-70
2021/12/11 12:06:31;;;;;;;20.80;4.05;;;;;;;8.66;66.64;101473.00;5055292;28;20053;-65